Time;durP1;ratioP1;P1;durP2;ratioP2;P2;SDS_P1;SDS_P2;PMS_P1;PMS_P2;Temp;Humidity;BMP_temperature;BMP_pressure;BME280_temperature;BME280_humidity;BME280_pressure;Samples;Min_cycle;Max_cycle;Signal;HPM_P1;HPM_P2
2023/04/29 00:01:04;;;;;;;56.67;30.58;;;11.70;99.90;;;;;;4955904;28;20095;-77
2023/04/29 00:03:31;;;;;;;55.13;30.60;;;11.70;99.90;;;;;;4940893;28;20079;-77
2023/04/29 00:05:59;;;;;;;56.95;31.75;;;11.60;99.90;;;;;;4955054;28;20055;-76
2023/04/29 00:08:26;;;;;;;47.60;28.42;;;11.60;99.90;;;;;;4954295;28;20629;-77
2023/04/29 00:10:53;;;;;;;46.88;27.40;;;11.60;99.90;;;;;;4937602;28;20051;-76
2023/04/29 00:13:20;;;;;;;51.83;29.98;;;11.50;99.90;;;;;;4942347;28;20055;-76
2023/04/29 00:15:47;;;;;;;51.70;29.55;;;11.50;99.90;;;;;;4938331;28;20122;-77
2023/04/29 00:18:13;;;;;;;45.45;26.70;;;11.60;99.90;;;;;;4940405;29;20110;-77
2023/04/29 00:20:41;;;;;;;43.75;26.65;;;11.50;99.90;;;;;;4926602;28;20126;-76
2023/04/29 00:23:07;;;;;;;44.85;28.52;;;11.60;99.90;;;;;;4941204;28;20055;-78
2023/04/29 00:25:34;;;;;;;45.53;27.83;;;11.50;99.90;;;;;;4954526;28;20069;-76
2023/04/29 00:28:02;;;;;;;50.30;29.88;;;11.50;99.90;;;;;;4936439;28;20050;-77
2023/04/29 00:30:29;;;;;;;48.05;28.00;;;11.50;99.90;;;;;;4937490;28;20101;-76
2023/04/29 00:32:56;;;;;;;51.83;29.73;;;11.60;99.90;;;;;;4922534;29;20051;-77
2023/04/29 00:35:23;;;;;;;48.97;29.08;;;11.60;99.90;;;;;;4956058;28;20053;-75
2023/04/29 00:37:49;;;;;;;50.75;30.52;;;11.60;99.90;;;;;;4937892;29;20032;-77
2023/04/29 00:40:17;;;;;;;41.40;25.92;;;11.60;99.90;;;;;;4953645;28;20046;-77
2023/04/29 00:42:43;;;;;;;46.78;27.00;;;11.40;99.90;;;;;;4921177;29;20047;-77
2023/04/29 00:45:11;;;;;;;45.05;28.23;;;11.30;99.90;;;;;;4923289;28;20055;-76
2023/04/29 00:47:38;;;;;;;45.45;28.58;;;11.30;99.90;;;;;;4924007;28;20077;-77
2023/04/29 00:50:06;;;;;;;48.33;28.92;;;11.30;99.90;;;;;;4952112;28;20631;-76
2023/04/29 00:52:33;;;;;;;51.88;30.90;;;11.40;99.90;;;;;;4925448;28;20047;-77
2023/04/29 00:55:01;;;;;;;54.85;29.80;;;11.40;99.90;;;;;;4954957;28;20045;-76
2023/04/29 00:57:29;;;;;;;57.67;31.52;;;11.50;99.90;;;;;;4957180;28;20035;-76
2023/04/29 00:59:59;;;;;;;58.63;33.20;;;11.40;99.90;;;;;;4937979;28;20045;-77
2023/04/29 01:02:27;;;;;;;65.63;34.83;;;11.30;99.90;;;;;;4939768;28;20177;-76
2023/04/29 01:04:54;;;;;;;58.75;34.03;;;11.30;99.90;;;;;;4937467;28;20306;-77
2023/04/29 01:07:38;;;;;;;66.68;34.50;;;11.20;99.90;;;;;;4942319;28;20144;-76
2023/04/29 01:10:13;;;;;;;67.25;35.47;;;11.20;99.90;;;;;;4954881;28;20677;-77
2023/04/29 01:12:43;;;;;;;69.93;35.33;;;11.20;99.90;;;;;;4937276;28;20094;-76
2023/04/29 01:15:25;;;;;;;69.10;37.75;;;11.20;99.90;;;;;;4954150;28;20046;-77
2023/04/29 01:18:04;;;;;;;68.45;35.67;;;11.10;99.90;;;;;;4953829;28;20369;-77
2023/04/29 01:20:32;;;;;;;61.88;33.58;;;11.10;99.90;;;;;;4943526;28;20614;-76
2023/04/29 01:22:59;;;;;;;68.82;36.00;;;11.10;99.90;;;;;;4921983;29;20086;-77
2023/04/29 01:25:26;;;;;;;69.75;37.33;;;11.10;99.90;;;;;;4921512;28;20126;-76
2023/04/29 01:28:53;;;;;;;80.30;39.58;;;11.00;99.90;;;;;;4857155;29;20614;-78
2023/04/29 01:31:44;;;;;;;75.30;38.05;;;10.90;99.90;;;;;;4856681;28;20045;-76
2023/04/29 01:34:26;;;;;;;80.05;39.03;;;10.90;99.90;;;;;;4926592;29;20054;-77
2023/04/29 01:37:07;;;;;;;78.78;38.15;;;10.80;99.90;;;;;;4953811;28;20340;-76
2023/04/29 01:39:51;;;;;;;85.38;40.53;;;10.80;99.90;;;;;;4937969;28;20570;-77
2023/04/29 01:42:35;;;;;;;91.18;41.50;;;10.80;99.90;;;;;;4951381;28;20051;-77
2023/04/29 01:45:10;;;;;;;93.22;43.85;;;10.80;99.90;;;;;;4938301;28;20049;-76
2023/04/29 01:47:38;;;;;;;88.78;41.08;;;10.70;99.90;;;;;;4952927;28;20040;-77
2023/04/29 01:50:05;;;;;;;91.95;40.92;;;10.70;99.90;;;;;;4921815;28;20031;-76
2023/04/29 01:52:32;;;;;;;99.70;42.13;;;10.60;99.90;;;;;;4937850;28;20689;-76
2023/04/29 01:54:59;;;;;;;96.97;42.47;;;10.60;99.90;;;;;;4953049;28;20039;-75
2023/04/29 01:57:34;;;;;;;100.65;43.72;;;10.70;99.90;;;;;;4954551;28;20043;-76
2023/04/29 02:00:21;;;;;;;94.75;41.42;;;10.60;99.90;;;;;;4934256;28;20069;-76
2023/04/29 02:02:50;;;;;;;93.95;39.88;;;10.60;99.90;;;;;;4935358;28;20489;-77
2023/04/29 02:05:32;;;;;;;86.68;39.88;;;10.60;99.90;;;;;;4943798;28;20126;-76
2023/04/29 02:08:00;;;;;;;97.60;40.90;;;10.50;99.90;;;;;;4937135;28;21873;-76
2023/04/29 02:10:29;;;;;;;112.93;43.80;;;10.50;99.90;;;;;;4955291;28;20408;-76
2023/04/29 02:13:12;;;;;;;112.32;46.78;;;10.40;99.90;;;;;;4937759;28;20536;-77
2023/04/29 02:15:39;;;;;;;116.75;47.05;;;10.40;99.90;;;;;;4937720;28;20043;-78
2023/04/29 02:18:06;;;;;;;138.90;51.50;;;10.40;99.90;;;;;;4935103;28;20528;-78
2023/04/29 02:20:33;;;;;;;137.07;55.70;;;10.40;99.90;;;;;;4942090;28;20043;-77
2023/04/29 02:23:03;;;;;;;138.93;53.88;;;10.30;99.90;;;;;;4937768;28;20065;-77
2023/04/29 02:25:30;;;;;;;134.65;53.72;;;10.30;99.90;;;;;;4952752;28;20881;-76
2023/04/29 02:27:57;;;;;;;132.70;53.92;;;10.30;99.90;;;;;;4935257;28;20043;-77
2023/04/29 02:30:25;;;;;;;147.00;55.33;;;10.20;99.90;;;;;;4942220;28;20122;-76
2023/04/29 02:32:52;;;;;;;157.52;57.13;;;10.30;99.90;;;;;;4954302;28;20516;-76
2023/04/29 02:35:18;;;;;;;128.40;52.70;;;10.30;99.90;;;;;;4955908;28;20078;-76
2023/04/29 02:37:46;;;;;;;148.13;55.95;;;10.30;99.90;;;;;;4958454;28;20047;-77
2023/04/29 02:40:12;;;;;;;150.60;57.22;;;10.30;99.90;;;;;;4949497;28;20048;-77
2023/04/29 02:42:39;;;;;;;156.38;56.13;;;10.30;99.90;;;;;;4928237;29;20126;-77
2023/04/29 02:45:07;;;;;;;129.60;52.83;;;10.20;99.90;;;;;;4947476;28;20047;-79
2023/04/29 02:47:33;;;;;;;112.68;44.92;;;10.20;99.90;;;;;;4943012;28;20121;-79
2023/04/29 02:50:00;;;;;;;109.20;47.15;;;10.10;99.90;;;;;;4959076;28;20511;-78
2023/04/29 02:52:27;;;;;;;109.10;44.80;;;10.00;99.90;;;;;;4945963;28;20879;-78
2023/04/29 02:54:54;;;;;;;114.80;46.20;;;10.00;99.90;;;;;;4957993;28;20043;-77
2023/04/29 02:57:21;;;;;;;129.63;48.60;;;10.00;99.90;;;;;;4958917;28;20074;-77
2023/04/29 02:59:47;;;;;;;145.98;53.55;;;9.90;99.90;;;;;;4926791;29;20043;-76
2023/04/29 03:02:14;;;;;;;153.93;59.92;;;9.90;99.90;;;;;;4957210;28;20051;-77
2023/04/29 03:04:44;;;;;;;168.15;59.47;;;9.80;99.90;;;;;;4945656;28;20050;-77
2023/04/29 03:07:10;;;;;;;153.60;56.72;;;9.90;99.90;;;;;;4958812;28;20061;-77
2023/04/29 03:09:37;;;;;;;165.07;58.60;;;9.80;99.90;;;;;;4944385;28;20178;-77
2023/04/29 03:12:04;;;;;;;159.32;59.72;;;9.80;99.90;;;;;;4942526;28;20070;-77
2023/04/29 03:14:31;;;;;;;185.80;65.47;;;9.70;99.90;;;;;;4959198;28;20043;-77
2023/04/29 03:16:57;;;;;;;160.65;59.97;;;9.70;99.90;;;;;;4926191;29;20726;-78
2023/04/29 03:19:24;;;;;;;165.75;61.25;;;9.70;99.90;;;;;;4946183;28;20408;-77
2023/04/29 03:21:51;;;;;;;179.90;65.00;;;9.70;99.90;;;;;;4958289;28;20035;-77
2023/04/29 03:24:20;;;;;;;202.70;68.95;;;9.60;99.90;;;;;;4943572;29;20060;-77
2023/04/29 03:26:47;;;;;;;178.57;63.22;;;9.70;99.90;;;;;;4943404;28;20070;-77
2023/04/29 03:29:14;;;;;;;160.57;59.95;;;9.70;99.90;;;;;;4956989;28;20841;-77
2023/04/29 03:31:41;;;;;;;156.35;60.40;;;9.60;99.90;;;;;;4943615;28;20122;-77
2023/04/29 03:34:09;;;;;;;148.93;56.80;;;9.60;99.90;;;;;;4952260;28;20042;-77
2023/04/29 03:36:39;;;;;;;143.63;52.83;;;9.60;99.90;;;;;;4948690;28;20962;-77
2023/04/29 03:39:06;;;;;;;156.35;54.05;;;9.60;99.90;;;;;;4965185;28;20047;-77
2023/04/29 03:41:33;;;;;;;151.85;56.17;;;9.60;99.90;;;;;;4963467;28;20051;-77
2023/04/29 03:44:00;;;;;;;165.85;54.67;;;9.60;99.90;;;;;;4963499;28;20055;-78
2023/04/29 03:46:28;;;;;;;155.60;54.72;;;9.60;99.90;;;;;;4931388;29;20109;-77
2023/04/29 03:48:55;;;;;;;158.75;53.83;;;9.50;99.90;;;;;;4961009;28;20059;-77
2023/04/29 03:51:25;;;;;;;144.52;53.22;;;9.50;99.90;;;;;;4943734;28;20646;-77
2023/04/29 03:54:00;;;;;;;166.73;53.70;;;9.60;99.90;;;;;;4943318;28;20040;-78
2023/04/29 03:56:27;;;;;;;157.68;51.22;;;9.50;99.90;;;;;;4959458;28;20039;-77
2023/04/29 03:58:54;;;;;;;173.10;54.35;;;9.50;99.90;;;;;;4943718;28;20062;-77
2023/04/29 04:01:22;;;;;;;182.85;57.40;;;9.50;99.90;;;;;;4959230;28;20692;-77
2023/04/29 04:03:51;;;;;;;183.20;56.72;;;9.50;99.90;;;;;;4961032;28;20043;-77
2023/04/29 04:06:18;;;;;;;176.10;57.30;;;9.40;99.90;;;;;;4960513;28;20377;-77
2023/04/29 04:08:45;;;;;;;167.70;55.85;;;9.30;99.90;;;;;;4943230;28;20051;-77
2023/04/29 04:11:19;;;;;;;199.45;62.05;;;9.30;99.90;;;;;;4927405;29;20063;-77
2023/04/29 04:13:51;;;;;;;196.13;58.38;;;9.20;99.90;;;;;;4946415;28;20039;-77
2023/04/29 04:16:18;;;;;;;190.27;57.63;;;9.30;99.90;;;;;;4947646;28;20039;-77
2023/04/29 04:18:44;;;;;;;194.75;61.60;;;9.30;99.90;;;;;;4944765;28;20058;-77
2023/04/29 04:21:12;;;;;;;188.93;59.88;;;9.20;99.90;;;;;;4928682;29;20538;-77
2023/04/29 04:23:42;;;;;;;158.40;54.35;;;9.20;99.90;;;;;;4935838;28;20047;-78
2023/04/29 04:26:13;;;;;;;174.35;55.50;;;9.30;99.90;;;;;;4960023;28;20563;-77
2023/04/29 04:28:58;;;;;;;163.38;56.40;;;9.40;99.90;;;;;;4946207;29;20054;-78
2023/04/29 04:31:33;;;;;;;172.75;57.70;;;9.30;99.90;;;;;;4963426;28;20058;-78
2023/04/29 04:34:01;;;;;;;182.15;62.35;;;9.30;99.90;;;;;;4960024;28;20673;-78
2023/04/29 04:36:29;;;;;;;171.57;57.45;;;9.30;99.90;;;;;;4959110;28;20040;-79
2023/04/29 04:38:56;;;;;;;174.00;56.75;;;9.20;99.90;;;;;;4946186;28;20039;-80
2023/04/29 04:41:23;;;;;;;179.82;54.33;;;9.20;99.90;;;;;;4961836;28;20074;-79
2023/04/29 04:43:51;;;;;;;155.40;51.15;;;9.20;99.90;;;;;;4962170;28;20120;-79
2023/04/29 04:46:27;;;;;;;183.07;53.00;;;9.20;99.90;;;;;;4965498;28;20051;-80
2023/04/29 04:49:05;;;;;;;230.10;60.80;;;9.30;99.90;;;;;;4945920;28;20753;-82
2023/04/29 04:51:33;;;;;;;285.70;68.35;;;9.20;99.90;;;;;;4942666;28;20052;-77
2023/04/29 04:54:00;;;;;;;174.82;53.05;;;9.20;99.90;;;;;;4956115;28;20046;-78
2023/04/29 04:56:29;;;;;;;167.30;50.90;;;9.20;99.90;;;;;;4964524;28;20044;-77
2023/04/29 04:58:56;;;;;;;168.88;52.17;;;9.20;99.90;;;;;;4941958;28;20127;-77
2023/04/29 05:01:23;;;;;;;224.40;58.33;;;9.20;99.90;;;;;;4941565;28;20046;-77
2023/04/29 05:03:50;;;;;;;239.38;58.13;;;9.20;99.90;;;;;;4952290;28;20098;-77
2023/04/29 05:06:17;;;;;;;141.13;46.47;;;9.30;99.90;;;;;;4923365;29;20050;-77
2023/04/29 05:08:45;;;;;;;117.25;41.80;;;9.30;99.90;;;;;;4940030;29;20050;-77
2023/04/29 05:11:17;;;;;;;122.38;42.22;;;9.30;99.90;;;;;;4960964;28;20500;-78
2023/04/29 05:13:47;;;;;;;114.13;40.28;;;9.30;99.90;;;;;;4942506;28;20419;-77
2023/04/29 05:16:18;;;;;;;98.47;37.35;;;9.30;99.90;;;;;;4938869;28;20126;-79
2023/04/29 05:18:46;;;;;;;92.35;37.25;;;9.30;99.90;;;;;;4956263;28;20043;-78
2023/04/29 05:21:15;;;;;;;90.68;35.35;;;9.20;99.90;;;;;;4958220;28;20040;-79
2023/04/29 05:23:44;;;;;;;94.53;36.05;;;9.20;99.90;;;;;;4943085;28;20681;-78
2023/04/29 05:26:11;;;;;;;89.40;37.78;;;9.20;99.90;;;;;;4940990;28;20043;-79
2023/04/29 05:28:38;;;;;;;96.10;37.13;;;9.20;99.90;;;;;;4941899;28;20098;-79
2023/04/29 05:31:06;;;;;;;96.88;36.90;;;9.30;99.90;;;;;;4944934;28;20045;-78
2023/04/29 05:33:33;;;;;;;89.10;37.38;;;9.30;99.90;;;;;;4942769;28;20039;-78
2023/04/29 05:36:00;;;;;;;103.65;36.05;;;9.30;99.90;;;;;;4955642;28;20053;-78
2023/04/29 05:38:27;;;;;;;103.15;40.63;;;9.40;99.90;;;;;;4942094;28;20687;-77
2023/04/29 05:41:03;;;;;;;98.72;39.55;;;9.40;99.90;;;;;;4958961;28;20043;-78
2023/04/29 05:43:48;;;;;;;86.90;35.13;;;9.30;99.90;;;;;;4960561;28;20057;-78
2023/04/29 05:46:15;;;;;;;76.30;32.63;;;9.40;99.90;;;;;;4954183;28;20066;-78
2023/04/29 05:48:42;;;;;;;74.55;31.67;;;9.30;99.90;;;;;;4958721;28;20043;-78
2023/04/29 05:51:11;;;;;;;89.13;36.63;;;9.30;99.90;;;;;;4925936;29;20043;-77
2023/04/29 05:53:39;;;;;;;92.13;37.97;;;9.40;99.90;;;;;;4942671;28;20035;-78
2023/04/29 05:56:07;;;;;;;116.78;44.20;;;9.30;99.90;;;;;;4933297;28;20062;-78
2023/04/29 05:58:34;;;;;;;144.90;48.90;;;9.30;99.90;;;;;;4961420;28;20130;-77
2023/04/29 06:01:02;;;;;;;125.65;48.22;;;9.40;99.90;;;;;;4926315;29;20090;-78
2023/04/29 06:03:30;;;;;;;124.55;47.42;;;9.30;99.90;;;;;;4941900;28;20692;-78
2023/04/29 06:06:16;;;;;;;155.45;55.03;;;9.40;99.90;;;;;;4941361;28;20102;-77
2023/04/29 06:09:05;;;;;;;178.55;58.92;;;9.40;99.90;;;;;;4957484;28;20053;-77
2023/04/29 06:11:43;;;;;;;210.82;60.67;;;9.30;99.90;;;;;;4941060;28;20106;-77
2023/04/29 06:14:10;;;;;;;214.85;61.92;;;9.30;99.90;;;;;;4941541;28;20085;-77
2023/04/29 06:16:38;;;;;;;321.38;69.45;;;9.20;99.90;;;;;;4940952;28;20098;-77
2023/04/29 06:19:08;;;;;;;229.85;64.22;;;9.30;99.90;;;;;;4958302;28;20077;-77
2023/04/29 06:21:35;;;;;;;170.48;57.65;;;9.40;99.90;;;;;;4958196;28;20039;-77
2023/04/29 06:24:01;;;;;;;151.43;57.58;;;9.40;99.90;;;;;;4958820;28;20073;-77
2023/04/29 06:26:29;;;;;;;111.10;50.45;;;9.40;99.90;;;;;;4942551;28;20039;-76
2023/04/29 06:28:56;;;;;;;111.20;52.08;;;9.30;99.90;;;;;;4955878;28;20051;-77
2023/04/29 06:31:22;;;;;;;113.45;50.13;;;9.30;99.90;;;;;;4958831;28;20071;-76
2023/04/29 06:33:51;;;;;;;106.60;49.13;;;9.40;99.90;;;;;;4928577;29;20047;-77
2023/04/29 06:36:19;;;;;;;103.57;49.47;;;9.40;99.90;;;;;;4958523;28;20078;-77
2023/04/29 06:39:04;;;;;;;113.32;51.33;;;9.40;99.90;;;;;;4941664;28;20043;-77
2023/04/29 06:42:06;;;;;;;105.50;49.03;;;9.40;99.90;;;;;;4882568;29;20143;-78
2023/04/29 06:44:43;;;;;;;95.25;47.75;;;9.50;99.90;;;;;;4949338;28;20423;-77
2023/04/29 06:47:20;;;;;;;97.22;46.83;;;9.50;99.90;;;;;;4956566;28;20114;-77
2023/04/29 06:49:54;;;;;;;94.40;46.88;;;9.60;99.90;;;;;;4943554;28;20039;-77
2023/04/29 06:52:21;;;;;;;87.70;44.47;;;9.70;99.90;;;;;;4954260;28;20043;-77
2023/04/29 06:54:48;;;;;;;91.75;48.40;;;9.70;99.90;;;;;;4938762;29;20042;-77
2023/04/29 06:57:17;;;;;;;89.75;44.45;;;9.70;99.90;;;;;;4941126;28;20040;-77
2023/04/29 06:59:45;;;;;;;81.85;43.15;;;9.70;99.90;;;;;;4938617;29;20042;-77
2023/04/29 07:02:12;;;;;;;76.25;41.97;;;9.70;99.90;;;;;;4956345;28;20067;-76
2023/04/29 07:04:39;;;;;;;74.38;39.47;;;9.60;99.90;;;;;;4945682;28;20070;-77
2023/04/29 07:07:06;;;;;;;77.90;40.83;;;9.60;99.90;;;;;;4941790;28;20051;-76
2023/04/29 07:09:33;;;;;;;81.90;43.30;;;9.60;99.90;;;;;;4959068;28;20051;-77
2023/04/29 07:12:01;;;;;;;78.97;40.05;;;9.60;99.90;;;;;;4942376;28;20039;-77
2023/04/29 07:14:28;;;;;;;77.40;39.55;;;9.60;99.90;;;;;;4958888;28;20532;-76
2023/04/29 07:16:54;;;;;;;81.25;41.15;;;9.60;99.90;;;;;;4960081;28;20741;-77
2023/04/29 07:19:22;;;;;;;80.90;41.10;;;9.60;99.90;;;;;;4943462;29;20667;-76
2023/04/29 07:21:49;;;;;;;76.90;40.28;;;9.70;99.90;;;;;;4936507;28;20040;-77
2023/04/29 07:24:16;;;;;;;79.68;42.08;;;9.60;99.90;;;;;;4958202;28;20589;-77
2023/04/29 07:26:45;;;;;;;82.80;42.17;;;9.70;99.90;;;;;;4943587;28;20127;-77
2023/04/29 07:29:14;;;;;;;76.95;42.78;;;9.60;99.90;;;;;;4961457;28;20789;-77
2023/04/29 07:31:41;;;;;;;81.50;44.25;;;9.60;99.90;;;;;;4960874;28;20039;-77
2023/04/29 07:34:08;;;;;;;86.75;43.13;;;9.60;99.90;;;;;;4949545;28;20106;-77
2023/04/29 07:36:34;;;;;;;80.40;41.72;;;9.60;99.90;;;;;;4961749;28;20039;-77
2023/04/29 07:39:01;;;;;;;79.22;42.03;;;9.60;99.90;;;;;;4946942;28;20054;-76
2023/04/29 07:41:28;;;;;;;75.95;40.08;;;9.60;99.90;;;;;;4928157;28;20571;-77
2023/04/29 07:43:55;;;;;;;84.10;42.75;;;9.60;99.90;;;;;;4958496;28;20047;-77
2023/04/29 07:46:22;;;;;;;87.55;44.85;;;9.70;99.90;;;;;;4961248;28;20047;-77
2023/04/29 07:48:49;;;;;;;81.05;44.47;;;9.70;99.90;;;;;;4955432;28;20108;-77
2023/04/29 07:51:16;;;;;;;81.80;43.20;;;9.80;99.90;;;;;;4960364;28;20078;-77
2023/04/29 07:53:42;;;;;;;75.88;41.60;;;9.70;99.90;;;;;;4945554;28;20998;-77
2023/04/29 07:56:09;;;;;;;86.75;45.35;;;9.60;99.90;;;;;;4952210;28;20843;-78
2023/04/29 07:58:36;;;;;;;79.05;42.30;;;9.70;99.90;;;;;;4945982;28;20051;-78
2023/04/29 08:01:10;;;;;;;91.40;44.83;;;9.70;99.90;;;;;;4947352;28;20098;-77
2023/04/29 08:03:38;;;;;;;88.72;47.30;;;9.70;99.90;;;;;;4962350;28;20118;-77
2023/04/29 08:06:08;;;;;;;87.22;44.97;;;9.80;99.90;;;;;;4952195;28;20134;-77
2023/04/29 08:08:35;;;;;;;87.13;46.50;;;9.80;99.90;;;;;;4946307;28;20051;-77
2023/04/29 08:11:01;;;;;;;82.68;44.53;;;9.90;99.90;;;;;;4946173;28;20050;-77
2023/04/29 08:13:28;;;;;;;82.90;44.40;;;9.90;99.90;;;;;;4946597;28;20073;-76
2023/04/29 08:15:55;;;;;;;79.97;44.38;;;9.90;99.90;;;;;;4957204;28;20176;-76
2023/04/29 08:18:21;;;;;;;91.68;47.55;;;9.90;99.90;;;;;;4961271;28;20562;-77
2023/04/29 08:20:48;;;;;;;91.72;47.88;;;9.90;99.90;;;;;;4959682;28;20043;-76
2023/04/29 08:23:15;;;;;;;83.28;48.53;;;10.00;99.90;;;;;;4960317;28;20744;-76
2023/04/29 08:25:42;;;;;;;85.80;50.60;;;10.00;99.90;;;;;;4943367;29;20051;-77
2023/04/29 08:28:10;;;;;;;89.15;47.78;;;10.20;99.90;;;;;;4929291;28;20103;-76
2023/04/29 08:30:39;;;;;;;81.85;46.45;;;10.30;99.90;;;;;;4927827;29;20074;-75
2023/04/29 08:33:07;;;;;;;84.15;48.65;;;10.50;99.90;;;;;;4927364;29;20082;-76
2023/04/29 08:35:37;;;;;;;81.40;45.00;;;10.70;99.90;;;;;;4926687;28;20070;-77
2023/04/29 08:38:08;;;;;;;74.43;45.50;;;10.60;99.90;;;;;;4942444;29;20059;-76
2023/04/29 08:40:48;;;;;;;76.30;45.00;;;10.40;99.90;;;;;;4958865;28;20135;-77
2023/04/29 08:43:15;;;;;;;80.15;47.30;;;10.50;99.90;;;;;;4958279;28;20505;-78
2023/04/29 08:45:43;;;;;;;72.25;43.70;;;10.70;99.90;;;;;;4959869;28;20043;-77
2023/04/29 08:48:10;;;;;;;59.90;42.08;;;10.90;99.90;;;;;;4943365;28;20055;-75
2023/04/29 08:50:39;;;;;;;65.95;43.60;;;10.80;99.90;;;;;;4957645;28;20047;-78
2023/04/29 08:53:10;;;;;;;70.20;45.40;;;10.90;99.90;;;;;;4960525;28;20125;-78
2023/04/29 08:55:45;;;;;;;66.40;45.38;;;11.10;99.90;;;;;;4944442;28;20049;-77
2023/04/29 08:58:14;;;;;;;72.32;48.03;;;11.00;99.90;;;;;;4940820;28;20062;-78
2023/04/29 09:00:42;;;;;;;69.20;46.30;;;10.80;99.90;;;;;;4941183;28;20123;-78
2023/04/29 09:03:23;;;;;;;71.53;45.13;;;10.70;99.90;;;;;;4927328;29;20081;-78
2023/04/29 09:05:54;;;;;;;69.35;43.20;;;10.70;99.90;;;;;;4943419;28;20649;-78
2023/04/29 09:08:22;;;;;;;64.65;43.13;;;10.70;99.90;;;;;;4948286;28;20625;-78
2023/04/29 09:10:53;;;;;;;64.10;42.72;;;10.80;99.90;;;;;;4943443;28;20043;-78
2023/04/29 09:13:37;;;;;;;60.20;42.25;;;10.80;99.90;;;;;;4959881;28;20047;-78
2023/04/29 09:16:10;;;;;;;51.03;36.55;;;10.80;99.90;;;;;;4956808;28;20122;-77
2023/04/29 09:18:45;;;;;;;51.90;38.55;;;10.80;99.90;;;;;;4960280;28;20055;-76
2023/04/29 09:21:16;;;;;;;;;;;10.80;99.90;;;;;;4959857;28;20039;-78
2023/04/29 09:23:47;;;;;;;46.30;36.65;;;10.90;99.90;;;;;;4958664;28;20362;-77
2023/04/29 09:26:15;;;;;;;47.20;39.22;;;10.80;99.90;;;;;;4944262;28;20047;-78
2023/04/29 09:28:46;;;;;;;42.80;32.97;;;10.90;99.90;;;;;;4942257;28;20559;-77
2023/04/29 09:31:13;;;;;;;45.72;36.85;;;10.90;99.90;;;;;;4944455;28;20129;-78
2023/04/29 09:33:54;;;;;;;45.28;37.30;;;10.90;99.90;;;;;;4940478;29;20055;-78
2023/04/29 09:36:46;;;;;;;43.75;37.90;;;11.10;99.90;;;;;;4953581;28;20051;-78
2023/04/29 09:39:16;;;;;;;42.80;36.55;;;11.10;99.90;;;;;;4937011;28;20058;-78
2023/04/29 09:41:52;;;;;;;46.90;40.47;;;11.20;99.90;;;;;;4953659;28;20134;-79
2023/04/29 09:44:18;;;;;;;40.72;36.38;;;11.20;99.90;;;;;;4939072;29;20047;-78
2023/04/29 09:47:05;;;;;;;42.42;37.78;;;11.20;99.90;;;;;;4938501;28;20036;-77
2023/04/29 09:49:37;;;;;;;42.85;37.90;;;11.30;99.90;;;;;;4923049;29;20043;-78
2023/04/29 09:52:06;;;;;;;44.92;38.55;;;11.30;99.90;;;;;;4954751;28;20047;-78
2023/04/29 09:54:37;;;;;;;44.05;38.35;;;11.10;99.90;;;;;;4927208;29;20043;-77
2023/04/29 09:57:06;;;;;;;42.60;37.90;;;11.10;99.90;;;;;;4938925;28;20501;-77
2023/04/29 09:59:37;;;;;;;50.10;39.75;;;11.10;99.90;;;;;;4923234;29;20047;-77
2023/04/29 10:02:17;;;;;;;46.55;39.55;;;11.10;99.90;;;;;;4939062;28;20086;-77
2023/04/29 10:04:46;;;;;;;45.50;40.63;;;11.20;99.90;;;;;;4938062;28;20075;-77
2023/04/29 10:07:15;;;;;;;50.58;42.60;;;11.10;99.90;;;;;;4937788;28;20043;-78
2023/04/29 10:09:44;;;;;;;47.88;42.45;;;11.20;99.90;;;;;;4953574;28;20073;-78
2023/04/29 10:12:16;;;;;;;43.60;37.65;;;11.30;99.90;;;;;;4949994;28;20146;-76
2023/04/29 10:14:56;;;;;;;45.53;40.78;;;11.20;99.90;;;;;;4938395;29;20077;-77
2023/04/29 10:17:42;;;;;;;44.97;40.25;;;11.20;99.90;;;;;;4953385;28;20134;-77
2023/04/29 10:20:12;;;;;;;;;;;11.20;99.90;;;;;;4935700;28;20050;-77
2023/04/29 10:22:45;;;;;;;45.97;39.20;;;11.30;99.90;;;;;;4939501;28;19976;-76
2023/04/29 10:25:14;;;;;;;43.97;39.25;;;11.40;99.90;;;;;;4937764;28;20054;-77
2023/04/29 10:27:43;;;;;;;42.33;37.70;;;11.40;99.90;;;;;;4937738;29;20035;-77
2023/04/29 10:30:17;;;;;;;43.60;38.97;;;11.50;99.90;;;;;;4938829;28;20126;-77
2023/04/29 10:32:45;;;;;;;40.38;36.28;;;11.60;99.90;;;;;;4954235;28;20035;-77
2023/04/29 10:35:21;;;;;;;42.53;38.30;;;11.80;99.90;;;;;;4939634;28;20044;-76
2023/04/29 10:37:48;;;;;;;42.75;38.58;;;11.80;99.90;;;;;;4953754;28;20051;-76
2023/04/29 10:40:23;;;;;;;41.20;37.22;;;11.80;99.90;;;;;;4937567;28;20713;-76
2023/04/29 10:42:52;;;;;;;43.35;39.15;;;11.90;99.90;;;;;;4924515;28;20053;-77
2023/04/29 10:45:27;;;;;;;42.58;38.70;;;12.00;99.90;;;;;;4936370;28;20051;-76
2023/04/29 10:50:38;;;;;;;43.58;39.53;;;12.00;99.90;;;;;;4950927;28;20069;-77
2023/04/29 10:53:05;;;;;;;;;;;11.90;99.90;;;;;;4948484;28;20040;-76
2023/04/29 10:55:36;;;;;;;44.25;39.70;;;11.90;99.90;;;;;;4950741;28;20631;-76
2023/04/29 10:58:04;;;;;;;45.85;41.33;;;11.90;99.90;;;;;;4954398;28;20043;-76
2023/04/29 11:00:33;;;;;;;45.78;41.30;;;11.90;99.90;;;;;;4940079;28;20045;-76
2023/04/29 11:03:01;;;;;;;42.67;38.75;;;12.10;99.90;;;;;;4954092;28;20058;-77
2023/04/29 11:05:35;;;;;;;41.92;38.15;;;12.20;99.90;;;;;;4938524;28;20054;-76
2023/04/29 11:08:22;;;;;;;42.17;38.38;;;12.30;99.90;;;;;;4954150;28;20510;-77
2023/04/29 11:10:53;;;;;;;41.47;37.85;;;12.50;99.90;;;;;;4955369;28;20050;-77
2023/04/29 11:13:30;;;;;;;41.78;38.45;;;12.50;99.90;;;;;;4939958;28;20131;-76
2023/04/29 11:16:08;;;;;;;44.22;40.13;;;12.60;99.90;;;;;;4944045;28;20043;-77
2023/04/29 11:18:55;;;;;;;43.25;39.45;;;12.50;99.90;;;;;;4956323;28;20051;-76
2023/04/29 11:21:22;;;;;;;41.15;37.60;;;12.40;99.90;;;;;;4923391;29;20039;-77
2023/04/29 11:23:50;;;;;;;41.63;38.22;;;12.30;99.90;;;;;;4940987;29;20073;-76
2023/04/29 11:26:18;;;;;;;42.92;39.30;;;12.40;99.90;;;;;;4939345;28;20148;-76
2023/04/29 11:28:46;;;;;;;43.90;40.47;;;12.50;99.90;;;;;;4929003;29;20043;-76
2023/04/29 11:31:13;;;;;;;45.85;41.88;;;12.50;99.90;;;;;;4939090;28;20538;-76
2023/04/29 11:33:39;;;;;;;47.60;43.90;;;12.70;99.90;;;;;;4937971;29;20051;-77
2023/04/29 11:36:08;;;;;;;45.58;42.08;;;13.10;99.90;;;;;;4942293;28;20408;-76
2023/04/29 11:38:39;;;;;;;45.72;41.92;;;13.30;99.90;;;;;;4954940;28;20035;-76
2023/04/29 11:41:06;;;;;;;46.05;42.40;;;13.00;99.90;;;;;;4951815;28;20509;-76
2023/04/29 11:43:32;;;;;;;50.30;46.22;;;12.80;99.90;;;;;;4954989;28;20130;-76
2023/04/29 11:45:59;;;;;;;51.25;47.20;;;12.80;99.90;;;;;;4955719;28;20047;-76
2023/04/29 11:48:26;;;;;;;50.53;46.50;;;12.90;99.90;;;;;;4938518;29;20815;-76
2023/04/29 11:50:58;;;;;;;46.22;42.58;;;13.00;99.90;;;;;;4940235;28;20035;-76
2023/04/29 11:53:26;;;;;;;44.70;40.85;;;12.90;99.90;;;;;;4955667;28;20047;-76
2023/04/29 11:55:53;;;;;;;43.40;40.03;;;12.90;99.90;;;;;;4955208;28;20122;-76
2023/04/29 11:58:21;;;;;;;44.45;40.88;;;12.70;99.90;;;;;;4938769;29;20615;-76
2023/04/29 12:00:48;;;;;;;43.35;39.63;;;12.60;99.90;;;;;;4954758;28;20167;-76
2023/04/29 12:03:20;;;;;;;45.95;41.85;;;12.60;99.90;;;;;;4954719;28;20087;-76
2023/04/29 12:05:51;;;;;;;42.22;38.63;;;12.50;99.90;;;;;;4937496;28;20106;-76
2023/04/29 12:08:29;;;;;;;41.97;38.47;;;12.50;99.90;;;;;;4954678;28;20110;-75
2023/04/29 12:10:57;;;;;;;43.38;39.47;;;12.30;99.90;;;;;;4937354;28;20094;-76
2023/04/29 12:13:37;;;;;;;49.53;45.53;;;12.20;99.90;;;;;;4938366;28;20058;-75
2023/04/29 12:16:04;;;;;;;46.60;42.80;;;12.40;99.90;;;;;;4936219;28;20058;-76
2023/04/29 12:18:31;;;;;;;45.78;41.80;;;12.40;99.90;;;;;;4953847;28;20559;-75
2023/04/29 12:20:58;;;;;;;44.00;40.58;;;12.40;99.90;;;;;;4952339;28;20035;-75
2023/04/29 12:23:28;;;;;;;44.85;41.20;;;12.30;99.90;;;;;;4953111;28;20062;-75
2023/04/29 12:25:58;;;;;;;46.65;42.60;;;12.40;99.90;;;;;;4936962;28;20049;-75
2023/04/29 12:28:25;;;;;;;44.10;40.47;;;12.50;99.90;;;;;;4922050;29;20062;-75
2023/04/29 12:30:53;;;;;;;44.03;40.28;;;12.50;99.90;;;;;;4954078;28;20047;-75
2023/04/29 12:33:22;;;;;;;44.53;40.63;;;12.60;99.90;;;;;;4939363;28;20139;-75
2023/04/29 12:35:50;;;;;;;43.90;40.40;;;12.70;99.90;;;;;;4939354;28;20047;-75
2023/04/29 12:38:27;;;;;;;44.47;40.72;;;12.70;99.90;;;;;;4954247;28;20051;-75
2023/04/29 12:40:55;;;;;;;44.25;40.55;;;12.70;99.90;;;;;;4938529;28;20047;-75
2023/04/29 12:43:30;;;;;;;45.95;42.05;;;12.60;99.90;;;;;;4936568;28;20135;-75
2023/04/29 12:46:07;;;;;;;;;;;12.60;99.90;;;;;;4923800;29;20043;-75